createdAt,value
2018-07-07T06:26:16.916Z,6.1
2018-07-07T06:26:34.405Z,8.6
2018-07-07T06:26:51.669Z,7.9
2018-07-07T06:27:08.629Z,7.2
2018-07-07T06:27:25.830Z,7.1
2018-07-07T06:27:42.848Z,7.4
2018-07-07T06:27:59.995Z,7.9
2018-07-07T06:28:37.173Z,7.8
2018-07-07T06:28:53.860Z,8.3
2018-07-07T06:29:11.781Z,6.8
2018-07-07T06:29:29.195Z,7.3
2018-07-07T06:29:46.611Z,7.2
2018-07-07T06:30:04.006Z,7
2018-07-07T06:30:21.278Z,7.5
2018-07-07T06:30:38.487Z,6.8
2018-07-07T06:30:55.872Z,6
2018-07-07T06:31:12.694Z,6.2
2018-07-07T06:31:29.670Z,7.1
2018-07-07T06:32:08.186Z,6.5
2018-07-07T06:32:24.884Z,6.3
2018-07-07T06:32:41.526Z,6.2
2018-07-07T06:32:58.242Z,7
2018-07-07T06:33:14.977Z,7.7
2018-07-07T06:33:31.696Z,6.8
2018-07-07T06:33:48.394Z,5.9
2018-07-07T06:34:05.504Z,6.2
2018-07-07T06:34:22.759Z,6.9
2018-07-07T06:34:39.445Z,7.9
2018-07-07T06:34:56.142Z,6.2
2018-07-07T06:35:13.358Z,5.9
2018-07-07T06:35:30.406Z,7.4
2018-07-07T06:36:06.005Z,9.1
2018-07-07T06:36:23.163Z,6.4
2018-07-07T06:37:30.804Z,5.7
2018-07-07T06:37:47.432Z,7.4
2018-07-07T06:38:04.082Z,6.1
2018-07-07T06:38:20.716Z,7
2018-07-07T06:39:06.201Z,6.3
2018-07-07T06:39:23.446Z,6.5
2018-07-07T06:39:40.820Z,5.9
2018-07-07T06:39:58.004Z,6.3
2018-07-07T06:40:15.542Z,6.6
2018-07-07T06:40:33.556Z,6.3
2018-07-07T06:40:50.801Z,6.1
2018-07-07T06:41:07.606Z,8.3
2018-07-07T06:41:24.372Z,8.8
2018-07-07T06:41:41.625Z,6.8
2018-07-07T06:41:58.784Z,6.1
2018-07-07T06:42:16.122Z,8
2018-07-07T06:42:33.249Z,8.6
2018-07-07T06:42:49.962Z,7.3
2018-07-07T06:44:04.230Z,8
2018-07-07T06:44:21.638Z,6.5
2018-07-07T06:45:06.223Z,7.6
2018-07-07T06:45:23.641Z,6.8
2018-07-07T06:45:41.003Z,6.5
2018-07-07T06:45:58.326Z,6.4
2018-07-07T06:46:37.704Z,6
2018-07-07T06:46:54.474Z,5.5
2018-07-07T06:47:11.196Z,6.4
2018-07-07T06:47:28.083Z,6.2
2018-07-07T06:47:44.942Z,6.5
2018-07-07T06:48:08.717Z,8
2018-07-07T06:49:03.482Z,7.1
2018-07-07T06:49:20.191Z,6.1
2018-07-07T06:49:37.759Z,7.2
2018-07-07T06:49:55.459Z,7.2
2018-07-07T06:50:35.325Z,6.4
2018-07-07T06:50:52.006Z,8
2018-07-07T06:51:08.811Z,7.4
2018-07-07T06:51:25.634Z,6.8
2018-07-07T06:51:42.566Z,6.6
2018-07-07T06:51:59.335Z,5.9
2018-07-07T06:52:16.175Z,6.5
2018-07-07T06:53:01.947Z,7.5
2018-07-07T06:53:19.237Z,7.3
2018-07-07T06:54:08.547Z,5.9
2018-07-07T06:54:25.955Z,5.7
2018-07-07T06:54:43.475Z,7.1
2018-07-07T06:55:00.731Z,7.2
2018-07-07T06:55:18.247Z,7.1
2018-07-07T06:56:50.574Z,5.9
2018-07-07T06:57:08.197Z,7.1
2018-07-07T06:57:25.940Z,7.4
2018-07-07T06:57:43.326Z,6.7
2018-07-07T06:58:04.396Z,5.6
2018-07-07T06:58:36.387Z,6
2018-07-07T06:58:53.109Z,7.6
2018-07-07T06:59:10.518Z,6.4
2018-07-07T06:59:28.111Z,6.9
2018-07-07T06:59:45.027Z,6.7
2018-07-07T07:00:02.064Z,5.9
2018-07-07T07:00:19.788Z,6.3
2018-07-07T07:01:05.293Z,8.4
2018-07-07T07:01:22.162Z,8.3
2018-07-07T07:02:04.867Z,7
2018-07-07T07:02:21.638Z,7.2
2018-07-07T07:03:05.459Z,6.4
2018-07-07T07:03:22.374Z,6.6
2018-07-07T07:04:31.979Z,7.4
2018-07-07T07:04:48.672Z,6.5
2018-07-07T07:05:06.103Z,8.7
2018-07-07T07:05:23.601Z,7.5
2018-07-07T07:06:35.758Z,6.2
2018-07-07T07:06:53.735Z,6.5
2018-07-07T07:07:36.954Z,7.4
2018-07-07T07:07:54.710Z,7.3
2018-07-07T07:08:11.429Z,5.7
2018-07-07T07:08:28.177Z,6.7
2018-07-07T07:08:44.992Z,8
2018-07-07T07:09:01.806Z,7.9
2018-07-07T07:09:18.703Z,7.1
2018-07-07T07:09:35.495Z,7.7
2018-07-07T07:09:52.313Z,8.3
2018-07-07T07:10:09.690Z,5.9
2018-07-07T07:10:27.222Z,7.5
2018-07-07T07:10:45.326Z,7.6
2018-07-07T07:11:01.718Z,6.7
2018-07-07T07:11:19.811Z,6.5
2018-07-07T07:11:38.284Z,6.9
2018-07-07T07:11:55.841Z,8.3
2018-07-07T07:12:12.576Z,6.9
2018-07-07T07:12:29.267Z,5.7
2018-07-07T07:12:46.609Z,7.1
2018-07-07T07:13:04.080Z,6.8
2018-07-07T07:13:20.866Z,6.5
2018-07-07T07:13:37.735Z,5.3
2018-07-07T07:13:54.504Z,5.3
2018-07-07T07:14:12.133Z,5.8
2018-07-07T07:14:29.904Z,6.9
2018-07-07T07:14:47.514Z,6.2
2018-07-07T07:15:05.230Z,6.3
2018-07-07T07:15:27.282Z,6.6
2018-07-07T07:15:44.140Z,6.5
2018-07-07T07:16:00.925Z,7.2
2018-07-07T07:16:17.620Z,6.7
2018-07-07T07:17:37.343Z,6.7
2018-07-07T07:17:54.054Z,5.9
2018-07-07T07:18:10.883Z,5.6
2018-07-07T07:18:27.703Z,6.5
2018-07-07T07:18:46.061Z,5.9
2018-07-07T07:19:03.768Z,5.2
2018-07-07T07:19:22.828Z,5.7
2018-07-07T07:19:39.632Z,6.4
2018-07-07T07:19:56.480Z,6.8
2018-07-07T07:20:14.750Z,6.8
2018-07-07T07:20:40.611Z,6
2018-07-07T07:21:07.813Z,5.7
2018-07-07T07:21:25.346Z,6.4
2018-07-07T07:21:43.228Z,5.8
2018-07-07T07:22:00.772Z,5.8
2018-07-07T07:22:17.686Z,6.7
2018-07-07T07:23:01.076Z,7.5
2018-07-07T07:23:17.914Z,7
2018-07-07T07:23:34.265Z,5.3
2018-07-07T07:23:52.498Z,6.2
2018-07-07T07:24:10.130Z,6.8
2018-07-07T07:24:27.925Z,6.1
2018-07-07T07:24:45.212Z,5.6
2018-07-07T07:25:02.746Z,5.7
2018-07-07T07:25:20.289Z,6.1
2018-07-07T07:25:38.035Z,7.1
2018-07-07T07:25:55.624Z,6.7
2018-07-07T07:26:13.255Z,5.4
2018-07-07T07:26:30.755Z,4.9
2018-07-07T07:26:47.478Z,6.4
2018-07-07T07:27:04.199Z,6.4
2018-07-07T07:27:21.137Z,5.5
2018-07-07T07:27:37.841Z,6
2018-07-07T07:27:54.718Z,5.3
2018-07-07T07:28:11.505Z,6.6
2018-07-07T07:28:28.288Z,8.8
2018-07-07T07:28:46.136Z,6.5
2018-07-07T07:29:03.696Z,5.2
2018-07-07T07:29:21.373Z,5.1
2018-07-07T07:29:38.066Z,5.7
2018-07-07T07:29:54.841Z,5.4
2018-07-07T07:31:24.020Z,6.3
2018-07-07T07:31:41.120Z,7.5
2018-07-07T07:31:58.557Z,6.5
2018-07-07T07:32:16.098Z,5.8
2018-07-07T07:33:00.862Z,6.5
2018-07-07T07:33:17.729Z,7.1
2018-07-07T07:34:05.680Z,6.2
2018-07-07T07:34:36.457Z,6.1
2018-07-07T07:34:53.237Z,5.5
2018-07-07T07:35:11.214Z,6.2
2018-07-07T07:35:29.198Z,6.8
2018-07-07T07:35:46.873Z,6.4
2018-07-07T07:36:04.657Z,7
2018-07-07T07:36:22.050Z,6.8
2018-07-07T07:36:38.914Z,6.1
2018-07-07T07:36:55.804Z,5.6
2018-07-07T07:37:13.463Z,6.4
2018-07-07T07:37:30.978Z,7.2
2018-07-07T07:37:48.608Z,6
2018-07-07T07:38:06.756Z,7.2
2018-07-07T07:38:24.556Z,7
2018-07-07T07:38:42.411Z,5.2
2018-07-07T07:39:00.043Z,5.8
2018-07-07T07:39:16.785Z,7.7
2018-07-07T07:39:33.586Z,6.5
2018-07-07T07:39:50.290Z,5
2018-07-07T07:40:08.410Z,4.9
2018-07-07T07:40:25.850Z,6.5
2018-07-07T07:40:43.368Z,6.1
2018-07-07T07:41:00.945Z,4.6
2018-07-07T07:41:18.972Z,5.8
2018-07-07T07:42:02.464Z,7.2
2018-07-07T07:42:20.931Z,7.5
2018-07-07T07:42:38.377Z,6.6
2018-07-07T07:42:56.328Z,6.5
2018-07-07T07:43:13.149Z,5.1
2018-07-07T07:43:29.892Z,6.6
2018-07-07T07:43:47.210Z,5.3
2018-07-07T07:44:31.305Z,4.3
2018-07-07T07:44:47.916Z,5.4
2018-07-07T07:45:05.119Z,6.1
2018-07-07T07:45:23.206Z,6.5
2018-07-07T07:46:02.820Z,6.6
2018-07-07T07:46:19.651Z,6.9
2018-07-07T07:47:29.592Z,6.6
2018-07-07T07:47:47.734Z,5.3
2018-07-07T07:48:36.157Z,4.6
2018-07-07T07:49:06.290Z,4.7
2018-07-07T07:49:33.901Z,8.2
2018-07-07T07:49:51.264Z,6.5
2018-07-07T07:50:08.898Z,6.5
2018-07-07T07:50:26.526Z,5.3
2018-07-07T07:50:44.526Z,5.8
2018-07-07T07:51:02.051Z,5.3
2018-07-07T07:51:19.372Z,6
2018-07-07T07:51:38.153Z,6.2
2018-07-07T07:52:00.485Z,6.4
2018-07-07T07:52:17.353Z,6.5
2018-07-07T07:52:34.351Z,5.9
2018-07-07T07:52:51.788Z,6.1
2018-07-07T07:53:09.262Z,8.1
2018-07-07T07:53:26.834Z,9.5
2018-07-07T07:54:05.308Z,6.9
2018-07-07T07:54:23.254Z,6.1
2018-07-07T07:54:40.844Z,6.6
2018-07-07T07:54:58.409Z,4.9
2018-07-07T07:55:18.608Z,6.3
2018-07-07T07:55:37.744Z,7.1
2018-07-07T07:55:56.125Z,7.4
2018-07-07T07:56:17.162Z,8
2018-07-07T07:56:54.207Z,7.3
2018-07-07T07:57:13.350Z,7
2018-07-07T07:57:33.754Z,6.5
2018-07-07T07:57:50.593Z,6.3
2018-07-07T07:58:46.619Z,4.6
2018-07-07T07:59:10.793Z,5.2
2018-07-07T07:59:30.561Z,4.7
2018-07-07T08:00:07.640Z,5.6
2018-07-07T08:00:25.078Z,6.3
2018-07-07T08:00:43.060Z,5.9
2018-07-07T08:01:05.246Z,6.3
2018-07-07T08:01:37.137Z,6.2
2018-07-07T08:01:57.402Z,4.8
2018-07-07T08:02:16.926Z,8.4
2018-07-07T08:02:34.592Z,7
2018-07-07T08:02:53.736Z,6.2
2018-07-07T08:03:33.604Z,5.7
2018-07-07T08:03:50.480Z,5.3
2018-07-07T08:04:07.356Z,5.2
2018-07-07T08:04:24.147Z,6
2018-07-07T08:04:46.135Z,6
2018-07-07T08:05:06.876Z,6.1
2018-07-07T08:05:24.769Z,5.8
2018-07-07T08:05:45.136Z,6.2
2018-07-07T08:06:12.244Z,7
2018-07-07T08:06:40.703Z,7.2
2018-07-07T08:06:58.537Z,5.7
2018-07-07T08:07:16.557Z,5.2
2018-07-07T08:07:36.532Z,5.4
2018-07-07T08:08:06.155Z,5.4
2018-07-07T08:08:25.645Z,5.3
2018-07-07T08:08:42.565Z,5.6
2018-07-07T08:08:59.375Z,4.9
2018-07-07T08:09:24.313Z,5.2
2018-07-07T08:10:11.005Z,5.4
2018-07-07T08:10:34.821Z,4.7
2018-07-07T08:10:54.909Z,5.5
2018-07-07T08:12:35.462Z,4.7
2018-07-07T08:12:52.929Z,5.1
2018-07-07T08:13:09.800Z,5.4
2018-07-07T08:13:26.561Z,5.6
2018-07-07T08:13:43.378Z,5.5
2018-07-07T08:14:00.114Z,5.4
2018-07-07T08:14:17.486Z,5.8
2018-07-07T08:15:21.013Z,9
2018-07-07T08:15:37.888Z,4.9
2018-07-07T08:15:54.715Z,3.7
2018-07-07T08:16:13.631Z,5
2018-07-07T08:16:36.219Z,4.8
2018-07-07T08:17:08.923Z,4.4
2018-07-07T08:17:26.352Z,5.4
2018-07-07T08:17:43.052Z,4.6
2018-07-07T08:17:59.894Z,4.7
2018-07-07T08:18:35.707Z,5.4
2018-07-07T08:18:52.677Z,5.8
2018-07-07T08:19:19.148Z,4.8
2018-07-07T08:19:37.783Z,4.8
2018-07-07T08:19:55.613Z,6.5
2018-07-07T08:20:41.723Z,5
2018-07-07T08:21:08.366Z,6.2
2018-07-07T08:21:34.600Z,6.1
2018-07-07T08:21:52.937Z,4.3
2018-07-07T08:22:09.859Z,4.3
2018-07-07T08:22:26.926Z,5.5
2018-07-07T08:22:46.061Z,4.8
2018-07-07T08:23:03.656Z,6.4
2018-07-07T08:23:21.019Z,5.8
2018-07-07T08:23:38.039Z,4.8
2018-07-07T08:23:54.943Z,6.2
2018-07-07T08:24:11.885Z,6.1
2018-07-07T08:24:28.709Z,4.5
2018-07-07T08:25:37.246Z,3.8
2018-07-07T08:25:55.694Z,4.3
2018-07-07T08:26:38.835Z,5.1
2018-07-07T08:26:56.243Z,6.2
2018-07-07T08:28:24.092Z,4
2018-07-07T08:28:40.959Z,4.1
2018-07-07T08:28:57.788Z,4.4
2018-07-07T08:29:16.417Z,4.6
2018-07-07T08:29:41.170Z,5.8
2018-07-07T08:30:19.047Z,6
2018-07-07T08:30:38.182Z,4.6
2018-07-07T08:30:58.714Z,4
2018-07-07T08:31:46.455Z,4.3
2018-07-07T08:32:25.260Z,4.1
2018-07-07T08:32:41.961Z,4.4
2018-07-07T08:32:58.808Z,4.9
2018-07-07T08:33:47.775Z,4.1
2018-07-07T08:34:33.249Z,3.8
2018-07-07T08:34:50.036Z,5
2018-07-07T08:35:33.354Z,4.3
2018-07-07T08:35:50.357Z,5.3
2018-07-07T08:36:07.284Z,4.4
2018-07-07T08:36:24.245Z,4.7
2018-07-07T08:37:06.644Z,6.4
2018-07-07T08:37:23.495Z,5.2
2018-07-07T08:38:17.244Z,4.5
2018-07-07T08:38:35.158Z,6.7
2018-07-07T08:38:51.937Z,4.8
2018-07-07T08:39:36.292Z,5
2018-07-07T08:39:54.468Z,4.8
2018-07-07T08:40:13.289Z,5.5
2018-07-07T08:40:30.880Z,5.5
2018-07-07T08:40:47.616Z,4.7
2018-07-07T08:41:04.315Z,4.4
2018-07-07T08:41:21.370Z,5.6
2018-07-07T08:42:07.509Z,6.6
2018-07-07T08:42:25.404Z,6.8
2018-07-07T08:42:42.341Z,5.4
2018-07-07T08:42:59.397Z,4.1
2018-07-07T08:43:17.427Z,4.9
2018-07-07T08:43:35.400Z,6.3
2018-07-07T08:43:53.304Z,5.2
2018-07-07T08:44:38.977Z,4.5
2018-07-07T08:44:55.846Z,5.3
2018-07-07T08:46:31.566Z,4.6
2018-07-07T08:47:49.763Z,5.4
2018-07-07T08:48:08.800Z,3.7
2018-07-07T08:48:26.179Z,4.7
2018-07-07T08:49:05.325Z,6
2018-07-07T08:49:22.091Z,4.9
2018-07-07T08:49:38.792Z,4.5
2018-07-07T08:49:55.735Z,4.4
2018-07-07T08:50:12.785Z,7.7
2018-07-07T08:50:29.756Z,5.2
2018-07-07T08:50:47.517Z,3.6
2018-07-07T08:51:08.870Z,4.3
2018-07-07T08:51:34.514Z,4.2
2018-07-07T08:51:54.104Z,4.4
2018-07-07T08:52:10.686Z,6
2018-07-07T08:52:27.439Z,4.2
2018-07-07T08:52:46.031Z,4.8
2018-07-07T08:53:03.388Z,4.8
2018-07-07T08:53:20.411Z,4.6
2018-07-07T08:54:35.205Z,4.5
2018-07-07T08:55:31.116Z,4.1
2018-07-07T08:55:47.964Z,4.9
2018-07-07T08:56:04.700Z,5.7
2018-07-07T08:56:21.560Z,6
2018-07-07T08:56:38.333Z,5
2018-07-07T08:56:55.104Z,4.9
2018-07-07T08:57:49.777Z,5.1
2018-07-07T08:58:45.494Z,6.3
2018-07-07T08:59:06.506Z,4.3
2018-07-07T08:59:24.169Z,3.9
2018-07-07T08:59:49.424Z,4.4
2018-07-07T09:00:33.137Z,4.7
2018-07-07T09:00:50.922Z,4.3
2018-07-07T09:01:07.779Z,6.1
2018-07-07T09:01:24.558Z,5.9
2018-07-07T09:01:41.300Z,4.5
2018-07-07T09:01:58.005Z,3.6
2018-07-07T09:02:17.313Z,4.2
2018-07-07T09:02:35.106Z,4
2018-07-07T09:03:00.864Z,5.2
2018-07-07T09:03:17.683Z,6
2018-07-07T09:04:51.003Z,6.4
2018-07-07T09:05:47.342Z,5.7
2018-07-07T09:06:05.190Z,5.3
2018-07-07T09:06:27.015Z,5.2
2018-07-07T09:06:43.552Z,4.4
2018-07-07T09:07:00.408Z,4.5
2018-07-07T09:07:37.746Z,4.3
2018-07-07T09:07:54.674Z,4.3
2018-07-07T09:08:12.169Z,4.9
2018-07-07T09:08:29.734Z,4.8
2018-07-07T09:08:47.740Z,5.4
2018-07-07T09:09:05.129Z,4.5
2018-07-07T09:09:21.981Z,4.2
2018-07-07T09:10:29.130Z,4
2018-07-07T12:44:19.690Z,2.9
2018-07-07T12:44:37.163Z,5
2018-07-07T12:44:54.324Z,4.5
2018-07-07T12:45:11.353Z,4.1
2018-07-07T12:45:56.597Z,3.2
2018-07-07T12:46:14.878Z,3.3
2018-07-07T12:46:31.690Z,3.9
2018-07-07T12:46:53.312Z,4
2018-07-07T12:47:47.060Z,4.1
2018-07-07T12:48:04.836Z,3.9
2018-07-07T12:48:28.592Z,4.7
2018-07-07T12:48:53.205Z,4.7
2018-07-07T12:49:15.272Z,3.3
2018-07-07T12:50:06.412Z,4.3
2018-07-07T12:51:02.224Z,2.9
2018-07-07T12:51:19.515Z,3.7
2018-07-07T12:51:36.415Z,2.8
2018-07-07T12:51:53.186Z,3.6
2018-07-07T12:52:10.008Z,3.4
2018-07-07T12:52:49.892Z,3.2
2018-07-07T12:53:06.673Z,4.4
2018-07-07T12:53:28.098Z,5.4
2018-07-07T12:54:19.610Z,4.3
2018-07-07T12:54:36.671Z,3.7
2018-07-07T12:54:53.580Z,4.6
2018-07-07T12:55:10.327Z,4.6
2018-07-07T12:55:27.573Z,4.9
2018-07-07T12:55:44.358Z,4.2
2018-07-07T12:56:01.913Z,4
2018-07-07T12:56:18.697Z,5
2018-07-07T12:56:35.524Z,4.9
2018-07-07T12:56:52.322Z,4.8
2018-07-07T12:57:09.081Z,4.6
2018-07-07T12:57:25.957Z,4.6
2018-07-07T12:57:42.815Z,3.7
2018-07-07T12:57:59.638Z,3.8
2018-07-07T12:58:16.595Z,4.3
2018-07-07T12:58:33.451Z,4
2018-07-07T12:58:50.419Z,4.2
2018-07-07T12:59:07.637Z,4.1
2018-07-07T12:59:50.502Z,3.7
2018-07-07T13:00:22.365Z,3.4
2018-07-07T13:00:41.885Z,3.5
2018-07-07T13:00:58.583Z,3.6
2018-07-07T13:01:17.566Z,2.8
2018-07-07T13:01:43.535Z,2.6
2018-07-07T13:02:00.257Z,3.8
2018-07-07T13:02:17.439Z,3.9
2018-07-07T13:02:34.106Z,4.7
2018-07-07T13:02:52.545Z,3.9
2018-07-07T13:03:09.644Z,3.1
2018-07-07T13:03:26.578Z,2.5
2018-07-07T13:03:43.303Z,3.1
2018-07-07T13:04:23.633Z,3.3
2018-07-07T13:04:52.652Z,3.6
2018-07-07T13:05:09.292Z,3.1
2018-07-07T13:05:53.830Z,2.9
2018-07-07T13:06:10.905Z,3.2
2018-07-07T13:06:27.657Z,2.8
2018-07-07T13:06:44.264Z,2.6
2018-07-07T13:07:01.173Z,4.1
2018-07-07T13:07:18.100Z,4.9
2018-07-07T13:07:36.060Z,4.7
2018-07-07T13:07:53.073Z,4.2
2018-07-07T13:08:10.190Z,3.7
2018-07-07T13:08:28.143Z,3
2018-07-07T13:08:45.132Z,3.1
2018-07-07T13:09:02.228Z,3.9
2018-07-07T13:09:23.118Z,4.4
2018-07-07T13:09:41.236Z,4.6
2018-07-07T13:10:01.296Z,4.1
2018-07-07T13:10:20.109Z,4.1
2018-07-07T13:10:37.642Z,4
2018-07-07T13:10:54.859Z,3
2018-07-07T13:11:11.798Z,3.9
2018-07-07T13:11:28.737Z,4.4
2018-07-07T13:11:49.485Z,3.7
2018-07-07T13:12:15.397Z,3.5
2018-07-07T13:12:32.593Z,4.2
2018-07-07T13:12:50.037Z,4.2
2018-07-07T13:13:07.149Z,5
2018-07-07T13:13:24.170Z,4.9
2018-07-07T13:13:41.856Z,5
2018-07-07T13:14:23.032Z,4.6
2018-07-07T13:14:40.229Z,4
2018-07-07T13:14:58.690Z,5.9
2018-07-07T13:15:15.609Z,5.5
2018-07-07T13:18:47.451Z,3.5
2018-07-07T13:19:04.387Z,4.3
2018-07-07T13:19:59.792Z,4.3
2018-07-07T13:22:25.786Z,5.9
2018-07-07T13:22:42.228Z,4.6
2018-07-07T13:23:03.032Z,4.4
2018-07-07T13:23:21.527Z,3.9
2018-07-07T13:23:38.410Z,3.2
2018-07-07T13:23:55.217Z,3.3
2018-07-07T13:24:12.199Z,2.8
2018-07-07T13:24:29.790Z,3
2018-07-07T13:24:46.619Z,3.7
2018-07-07T13:25:03.643Z,3.9
2018-07-07T13:25:20.385Z,3.6
2018-07-07T13:25:37.362Z,3.1
2018-07-07T13:25:54.955Z,4
2018-07-07T13:26:18.859Z,3.6
2018-07-07T13:26:39.494Z,3.9
2018-07-07T13:26:56.647Z,3.7
2018-07-07T13:27:13.876Z,4.2
2018-07-07T13:27:30.506Z,3.9
2018-07-07T13:28:46.027Z,2.7
2018-07-07T13:30:57.755Z,5.2
2018-07-07T13:31:15.485Z,3.9
2018-07-07T13:31:32.326Z,5
2018-07-07T13:31:49.179Z,3.7
2018-07-07T13:32:46.959Z,2.8
2018-07-07T13:33:03.815Z,2.7
2018-07-07T13:33:21.321Z,4.2
2018-07-07T13:33:39.136Z,4
2018-07-07T13:35:58.807Z,4.1
2018-07-07T13:36:15.738Z,3.6
2018-07-07T13:36:32.420Z,3.7
2018-07-07T13:36:52.934Z,3.1
2018-07-07T13:37:12.228Z,3.9
2018-07-07T13:37:29.157Z,3.8
2018-07-07T13:37:46.635Z,3.6
2018-07-07T13:38:03.449Z,3.4
2018-07-07T13:38:20.124Z,3.2
2018-07-07T13:38:37.027Z,2.9
2018-07-07T13:39:10.969Z,3.4
2018-07-07T13:39:27.390Z,3.1
2018-07-07T13:39:45.691Z,3.7
2018-07-07T13:40:02.969Z,4.6
2018-07-07T13:41:10.859Z,3.4
2018-07-07T13:41:28.005Z,4.8
2018-07-07T13:41:47.741Z,3.8
2018-07-07T13:42:13.214Z,3
2018-07-07T13:42:30.301Z,3.9
2018-07-07T13:42:49.225Z,5.3
2018-07-07T13:43:06.155Z,4.2
2018-07-07T13:43:23.088Z,5.6
2018-07-07T13:43:39.918Z,4.6
2018-07-07T13:46:15.902Z,4.1
2018-07-07T13:46:33.578Z,2.9
2018-07-07T13:46:50.328Z,3
2018-07-07T13:47:06.898Z,3.4
2018-07-07T13:47:25.413Z,3.7
2018-07-07T13:47:48.772Z,3.1
2018-07-07T13:48:09.157Z,3.9
2018-07-07T13:49:00.856Z,4.9
2018-07-07T13:50:17.959Z,5.5
2018-07-07T13:50:35.126Z,4
2018-07-07T13:50:53.647Z,5.1
2018-07-07T13:51:22.430Z,3.7
2018-07-07T13:51:39.287Z,3.7
2018-07-07T13:51:59.706Z,4.5
2018-07-07T13:52:24.150Z,4.3
2018-07-07T13:52:44.319Z,4.5
2018-07-07T13:53:05.073Z,3.4
2018-07-07T13:53:22.037Z,4.3
2018-07-07T13:53:39.733Z,4.9
2018-07-07T13:54:06.387Z,5.8
2018-07-07T13:54:32.066Z,3.5
2018-07-07T13:54:54.323Z,3.3
2018-07-07T13:55:13.281Z,3
2018-07-07T13:55:48.992Z,3.1
2018-07-07T13:56:21.199Z,3.7
2018-07-07T13:56:50.647Z,4
2018-07-07T13:57:11.299Z,4.5
2018-07-07T13:57:27.853Z,2.9
2018-07-07T13:57:44.814Z,3.1
2018-07-07T13:58:07.413Z,2.9
2018-07-07T13:58:52.151Z,3.8
2018-07-07T13:59:09.066Z,3.3
2018-07-07T13:59:50.538Z,2.9
2018-07-07T14:00:10.802Z,2.9
2018-07-07T14:00:28.198Z,3
2018-07-07T14:00:45.224Z,3.2
2018-07-07T14:02:09.499Z,3.2
2018-07-07T14:02:26.637Z,3
2018-07-07T14:02:43.499Z,3.5
2018-07-07T14:03:00.934Z,3.5
2018-07-07T14:03:17.901Z,4.6
2018-07-07T14:03:34.799Z,4.2
2018-07-07T14:03:51.946Z,3.5
2018-07-07T14:04:09.233Z,3.7
2018-07-07T14:04:26.397Z,3.4
2018-07-07T14:04:43.280Z,4.2
2018-07-07T14:05:02.187Z,4.6
2018-07-07T14:05:21.207Z,4.7
2018-07-07T14:05:49.171Z,4.7
2018-07-07T14:06:17.131Z,3.3
2018-07-07T14:06:35.358Z,2.7
2018-07-07T14:06:55.114Z,3.2
2018-07-07T14:07:19.878Z,3.6
2018-07-07T14:07:37.781Z,3.2
2018-07-07T14:07:55.947Z,4.4
2018-07-07T14:08:13.011Z,5.9
2018-07-07T14:08:30.452Z,4.9
2018-07-07T14:08:47.481Z,3.4
2018-07-07T14:09:05.068Z,3.1
2018-07-07T14:09:33.490Z,4.6
2018-07-07T14:09:54.366Z,4.7
2018-07-07T14:10:24.213Z,3.3
2018-07-07T14:10:41.553Z,4.8
2018-07-07T14:10:59.136Z,5
2018-07-07T14:11:16.427Z,4.9
2018-07-07T14:11:37.445Z,4.4
2018-07-07T14:11:56.073Z,3.3
2018-07-07T14:12:13.549Z,3.2
2018-07-07T14:12:30.299Z,4.3
2018-07-07T14:12:47.653Z,3.7
2018-07-07T14:13:04.592Z,3.3
2018-07-07T14:13:21.826Z,3.9
2018-07-07T14:13:40.459Z,4.5
2018-07-07T14:13:57.690Z,4.4
2018-07-07T14:14:14.838Z,4.2
2018-07-07T14:14:32.502Z,5.2
2018-07-07T14:14:51.915Z,4.3
2018-07-07T14:15:22.643Z,3.6
2018-07-07T14:15:40.590Z,4
2018-07-07T14:15:57.805Z,2.4
2018-07-07T14:16:15.038Z,4.4
2018-07-07T14:16:33.467Z,4.7
2018-07-07T14:16:50.238Z,4.4
2018-07-07T14:17:19.595Z,4.9
2018-07-07T14:18:16.687Z,4.4
2018-07-07T14:18:51.729Z,4.2
2018-07-07T14:20:03.180Z,3.8
2018-07-07T14:20:20.622Z,3.6
2018-07-07T14:20:47.069Z,4.2
2018-07-07T14:21:04.163Z,4
2018-07-07T14:21:22.125Z,3
2018-07-07T14:21:56.284Z,4.2
2018-07-07T14:22:14.244Z,3.3
2018-07-07T14:22:37.544Z,5.6
2018-07-07T14:23:06.596Z,6.3
2018-07-07T14:23:51.864Z,5.7
2018-07-07T14:24:48.268Z,3.4
2018-07-07T14:25:28.586Z,3.8
2018-07-07T15:15:14.027Z,3
2018-07-07T15:15:31.711Z,3.5
2018-07-07T15:15:49.491Z,4
2018-07-07T15:16:07.197Z,3.9
2018-07-07T15:16:23.898Z,4.4
2018-07-07T15:16:40.700Z,4.9
2018-07-07T15:16:57.290Z,5.3
2018-07-07T15:17:14.083Z,4.9
2018-07-07T15:17:31.439Z,4.9
2018-07-07T15:17:48.803Z,4.2
2018-07-07T15:18:06.120Z,3.9
2018-07-07T15:18:49.729Z,6.1
2018-07-07T15:19:08.556Z,7.1
2018-07-07T15:19:25.810Z,4.1
2018-07-07T15:19:42.567Z,3.6
2018-07-07T15:19:59.605Z,5
2018-07-07T15:20:17.066Z,5.4
2018-07-07T15:20:35.529Z,3.9
2018-07-07T15:20:53.070Z,3.7
2018-07-07T15:21:10.010Z,3.3
2018-07-07T15:21:27.212Z,4.5
2018-07-07T15:21:44.681Z,4.5
2018-07-07T15:22:01.695Z,3
2018-07-07T15:22:18.431Z,3
2018-07-07T15:22:35.529Z,4.3
2018-07-07T15:22:52.301Z,3.8
2018-07-07T15:23:09.544Z,3.8
2018-07-07T15:23:26.538Z,4.4
2018-07-07T15:23:43.239Z,3.4
2018-07-07T15:24:00.166Z,3.3
2018-07-07T15:24:17.130Z,5.3
2018-07-07T15:24:34.065Z,5.5
2018-07-07T15:24:54.644Z,4.1
2018-07-07T15:25:23.280Z,5
2018-07-07T15:25:40.348Z,4.9
2018-07-07T15:25:56.968Z,3.7
2018-07-07T15:26:14.019Z,3.7
2018-07-07T15:26:30.948Z,3.5
2018-07-07T15:26:48.208Z,4.4
2018-07-07T15:27:17.030Z,4.5
2018-07-07T15:27:34.044Z,3.7
2018-07-07T15:27:50.905Z,4.2
2018-07-07T15:28:07.905Z,3.3
2018-07-07T15:28:28.754Z,3.2
2018-07-07T15:28:53.215Z,3.7
2018-07-07T15:29:12.103Z,3.3
